PGUM Airport Information

Runway Information
Runway 06L Length 10015 ft width 150 ft
Elevation 239 ft Threshold 0 ft Heading 65
Runway 24R Length 10015 ft Width 150 ft
Elevation 297 ft Threshold 0 ft Heading 245
Runway 06R Length 8001 ft width 150 ft
Elevation 231 ft Threshold 0 ft Heading 65
Runway 24L Length 8001 ft Width 150 ft
Elevation 284 ft Threshold 0 ft Heading 245
Airport Frequencies
Type A/D Name APP/DEP Frequency 118.7 MHZ
Type ARTC Name GUAM CERAP Frequency 120.5 MHZ
Type ATIS Name ATIS Frequency 119 MHZ
Type CLD Name CLNC DEL Frequency 121.9 MHZ
Type GND Name GND Frequency 121.9 MHZ
Type RMP Name RAMP Frequency 121.6 MHZ
Type TWR Name AGANA TWR Frequency 118.1 MHZ
Airport Navaids
Type NDB Name Mt Macajna Frequency 385 KHZ
Type VORTAC Name Nimitz Frequency 115300 KHZ
Airport Weather Information & NOTAM
ADDS - METARS form results

(2354 UTC 19 October 2020)
Data provider http://aviationweather.gov/metar/data/
 
Forecast for: PGUM (AGANA , GU, US)
Text: PGUM 192320Z 2000/2106 09008KT P6SM VCSH FEW016 SCT040 SCT250
Forecast period: 0000 UTC 20 October 2020 to 0600 UTC 21 October 2020
Forecast type: FROM: standard forecast or significant change
Winds: from the E (90 degrees) at 9 MPH (8 knots; 4.1 m/s)
Visibility: 6 or more miles (10+ km)
Ceiling: at least 12,000 feet AGL
Clouds: few clouds at 1600 feet AGL
scattered clouds at 4000 feet AGL
scattered clouds at 25000 feet AGL
Weather: VCSH  (showers in vicinity)